WetterOnline ( https://www.wetteronline.de )

Wetter aktuell Hammelburg

Aktuelles Wetter: Bad Kissingen (266m)

6-stündlich | Neueste Meldungen
Ortszeit Temperatur Wetter
Fr, 03.02. 1:00 5.5° C leichter Regen
Do, 02.02. 19:00 3.5° C leichter Regen
Do, 02.02. 13:00 5.7° C leichter Regen
Do, 02.02. 7:00 2.8° C leichter Regen
Do, 02.02. 1:00 2.7° C leichter Regen
Mi, 01.02. 19:00 4.9° C bedeckt
Mi, 01.02. 13:00 4.8° C Regen
Mi, 01.02. 7:00 4.4° C leichter Regen
Ortszeit Temperatur Wetter
Fr, 03.02. 4:00 5.9° C Sprühregen
Fr, 03.02. 3:50 5.9° C Sprühregen
Fr, 03.02. 3:40 5.8° C bedeckt
Fr, 03.02. 3:30 5.9° C leichter Regen
Fr, 03.02. 3:20 5.9° C leichter Regen
Fr, 03.02. 3:10 5.8° C leichter Regen
Fr, 03.02. 3:00 5.8° C bewölkt
Fr, 03.02. 2:30 5.7° C bedeckt
Fr, 03.02. 2:00 5.7° C Regen
Fr, 03.02. 1:30 5.6° C leichter Regen
Fr, 03.02. 1:00 5.5° C leichter Regen
Ortszeit Relative Feuchte Sichtweite
Fr, 03.02. 1:00 94% 13 km
Do, 02.02. 19:00 99% 4.1 km
Do, 02.02. 13:00 91% 10 km
Do, 02.02. 7:00 92% 24 km
Do, 02.02. 1:00 92% 23 km
Mi, 01.02. 19:00 79% 40 km
Mi, 01.02. 13:00 79% 40 km
Mi, 01.02. 7:00 80% 30 km
Ortszeit Relative Feuchte Sichtweite
Fr, 03.02. 4:00 92% 35 km
Fr, 03.02. 3:50 92% -
Fr, 03.02. 3:40 93% -
Fr, 03.02. 3:30 93% 16 km
Fr, 03.02. 3:20 93% -
Fr, 03.02. 3:10 93% -
Fr, 03.02. 3:00 93% 28 km
Fr, 03.02. 2:30 93% 30 km
Fr, 03.02. 2:00 93% 40 km
Fr, 03.02. 1:30 93% 21 km
Fr, 03.02. 1:00 94% 13 km
Ortszeit Niederschlagsmenge Niederschlagsart
Fr, 03.02. 1:00 4 l/m2 in 6 Std. Regen
Do, 02.02. 19:00 13 l/m2 in 12 Std. Regen
Do, 02.02. 13:00 9 l/m2 in 6 Std. Regen
Do, 02.02. 7:00 13 l/m2 in 12 Std. Regen
Do, 02.02. 1:00 7 l/m2 in 6 Std. Regen
Mi, 01.02. 19:00 0.2 l/m2 in 12 Std. Regen
Mi, 01.02. 13:00 0.1 l/m2 in 6 Std. Regen
Mi, 01.02. 7:00 1 l/m2 in 12 Std. Regen
Ortszeit Niederschlagsmenge Niederschlagsart
Fr, 03.02. 4:00 0.1 l/m2 in 1 Std. Regen
Fr, 03.02. 3:50 keine Meldung -
Fr, 03.02. 3:40 keine Meldung -
Fr, 03.02. 3:30 0.1 l/m2 in 30 Min -
Fr, 03.02. 3:20 keine Meldung -
Fr, 03.02. 3:10 keine Meldung -
Fr, 03.02. 3:00 <0.05 l/m2 in 1 Std. Regen
Fr, 03.02. 2:30 0.0 l/m2 in 30 Min -
Fr, 03.02. 2:00 0.1 l/m2 in 1 Std. Regen
Fr, 03.02. 1:30 0.1 l/m2 in 30 Min -
Fr, 03.02. 1:00 0.5 l/m2 in 1 Std. Regen
Ortszeit Stärke Spitze Richtung
km/h Bft. km/h Grad Sektor
Fr, 03.02. 1:00 22 4 40 250° W
Do, 02.02. 19:00 6 1 24 80° O
Do, 02.02. 13:00 11 2 22 290° W
Do, 02.02. 7:00 9 2 46 190° S
Do, 02.02. 1:00 18 3 58 310° NW
Mi, 01.02. 19:00 18 3 54 260° W
Mi, 01.02. 13:00 30 5 50 260° W
Mi, 01.02. 7:00 24 4 37 260° W
Ortszeit Stärke Spitze Richtung
km/h Bft. km/h Grad Sektor
Fr, 03.02. 4:00 22 4 40 250° W
Fr, 03.02. 3:50 22 4 - 250° W
Fr, 03.02. 3:40 25 4 - 260° W
Fr, 03.02. 3:30 26 4 41 250° W
Fr, 03.02. 3:20 26 4 - 250° W
Fr, 03.02. 3:10 22 4 - 250° W
Fr, 03.02. 3:00 20 4 43 240° SW
Fr, 03.02. 2:30 18 3 29 240° SW
Fr, 03.02. 2:00 17 3 35 250° W
Fr, 03.02. 1:30 20 4 33 240° SW
Fr, 03.02. 1:00 22 4 40 250° W
Ortszeit Untergrenze Bedeckung Gattung
total tief tief mittel hoch
Fr, 03.02. 1:00 510 m 8/8 8/8 - - -
Do, 02.02. 19:00 420 m 7/8 7/8 - - -
Do, 02.02. 13:00 420 m 7/8 7/8 - - -
Do, 02.02. 7:00 300 m 7/8 7/8 - - -
Do, 02.02. 1:00 240 m 8/8 8/8 - - -
Mi, 01.02. 19:00 780 m 8/8 8/8 - - -
Mi, 01.02. 13:00 720 m 8/8 8/8 - - -
Mi, 01.02. 7:00 1080 m 8/8 8/8 - - -
Ortszeit Bedeckungsgrad in Achtel und Wolkenuntergrenze
Fr, 03.02. 4:00 5(780m) 8(4500m) 8(7500m)
Fr, 03.02. 3:50 5(780m) 8(4500m) 8(7500m)
Fr, 03.02. 3:40 8
Fr, 03.02. 3:30 6(450m) 8(870m) 8(4500m)
Fr, 03.02. 3:20 6(450m) 8(870m) 8(4500m)
Fr, 03.02. 3:10 8
Fr, 03.02. 3:00 6(480m) 7(600m) 7(750m)
Fr, 03.02. 2:30 1(300m) 7(540m) 8(750m)
Fr, 03.02. 2:00 1(240m) 8(480m)
Fr, 03.02. 1:30 7(510m)
Fr, 03.02. 1:00 5(510m) 7(630m) 8(1500m)
Ortszeit Luftdruck NN (hPa) Tendenz (hPa in 3 Std.)
Fr, 03.02. 1:00 1027 + 0,2
Do, 02.02. 19:00 1026 + 2,1
Do, 02.02. 13:00 1022 + 0,6
Do, 02.02. 7:00 1022 + 1,3
Do, 02.02. 1:00 1020 + 1,2
Mi, 01.02. 19:00 1019 + 0,9
Mi, 01.02. 13:00 1019 - 0,3
Mi, 01.02. 7:00 1019 - 0,8
Ortszeit Luftdruck NN (hPa) Tendenz (hPa in 3 Std.)
Fr, 03.02. 4:00 1026 - 0,9
Fr, 03.02. 3:50 1026 keine Meldung
Fr, 03.02. 3:40 1025 keine Meldung
Fr, 03.02. 3:30 1025 - 1,0
Fr, 03.02. 3:20 1025 keine Meldung
Fr, 03.02. 3:10 1026 keine Meldung
Fr, 03.02. 3:00 1026 - 0,6
Fr, 03.02. 2:30 1026 - 0,4
Fr, 03.02. 2:00 1026 + 0,2
Fr, 03.02. 1:30 1027 + 0,1
Fr, 03.02. 1:00 1027 + 0,2
Ortszeit Schneehöhe (cm)
Fr, 03.02. 1:00 0
Do, 02.02. 19:00 0
Do, 02.02. 13:00 0
Do, 02.02. 7:00 0
Do, 02.02. 1:00 0
Mi, 01.02. 19:00 0
Mi, 01.02. 13:00 0
Mi, 01.02. 7:00 0
Ortszeit Schneehöhe (cm)
Fr, 03.02. 4:00 0
Fr, 03.02. 3:50 0
Fr, 03.02. 3:40 0
Fr, 03.02. 3:30 0
Fr, 03.02. 3:20 0
Fr, 03.02. 3:10 0
Fr, 03.02. 3:00 0
Fr, 03.02. 2:30 0
Fr, 03.02. 2:00 0
Fr, 03.02. 1:30 0
Fr, 03.02. 1:00 0
Link zu dieser Seite / Seite empfehlen

Das Wetter in ...